sensor_id;sensor_type;location;lat;lon;timestamp;P1;durP1;ratioP1;P2;durP2;ratioP2
74064;SDS011;62421;51.412;5.432;2022-07-29T00:01:48;7.22;;;1.90;;
74064;SDS011;62421;51.412;5.432;2022-07-29T00:04:13;6.78;;;1.83;;
74064;SDS011;62421;51.412;5.432;2022-07-29T00:06:39;8.88;;;1.83;;
74064;SDS011;62421;51.412;5.432;2022-07-29T00:09:04;8.63;;;1.60;;
74064;SDS011;62421;51.412;5.432;2022-07-29T00:11:30;5.97;;;1.50;;
74064;SDS011;62421;51.412;5.432;2022-07-29T00:13:55;6.20;;;1.47;;
74064;SDS011;62421;51.412;5.432;2022-07-29T00:16:21;4.77;;;1.30;;
74064;SDS011;62421;51.412;5.432;2022-07-29T00:18:46;7.03;;;1.40;;
74064;SDS011;62421;51.412;5.432;2022-07-29T00:21:12;7.27;;;1.40;;
74064;SDS011;62421;51.412;5.432;2022-07-29T00:23:37;9.07;;;1.55;;
74064;SDS011;62421;51.412;5.432;2022-07-29T00:26:02;5.97;;;1.47;;
74064;SDS011;62421;51.412;5.432;2022-07-29T00:28:28;7.07;;;1.73;;
74064;SDS011;62421;51.412;5.432;2022-07-29T00:30:53;11.43;;;1.60;;
74064;SDS011;62421;51.412;5.432;2022-07-29T00:33:19;7.10;;;2.07;;
74064;SDS011;62421;51.412;5.432;2022-07-29T00:35:44;8.97;;;2.00;;
74064;SDS011;62421;51.412;5.432;2022-07-29T00:38:10;10.73;;;1.70;;
74064;SDS011;62421;51.412;5.432;2022-07-29T00:40:36;5.70;;;1.88;;
74064;SDS011;62421;51.412;5.432;2022-07-29T00:43:02;9.05;;;2.42;;
74064;SDS011;62421;51.412;5.432;2022-07-29T00:45:27;7.22;;;2.38;;
74064;SDS011;62421;51.412;5.432;2022-07-29T00:47:52;12.63;;;3.00;;
74064;SDS011;62421;51.412;5.432;2022-07-29T00:50:18;10.57;;;3.17;;
74064;SDS011;62421;51.412;5.432;2022-07-29T00:52:43;10.07;;;3.27;;
74064;SDS011;62421;51.412;5.432;2022-07-29T00:55:11;10.05;;;3.05;;
74064;SDS011;62421;51.412;5.432;2022-07-29T00:57:37;9.53;;;3.30;;
74064;SDS011;62421;51.412;5.432;2022-07-29T01:00:04;15.18;;;4.20;;
74064;SDS011;62421;51.412;5.432;2022-07-29T01:02:31;9.55;;;3.28;;
74064;SDS011;62421;51.412;5.432;2022-07-29T01:04:56;9.50;;;3.60;;
74064;SDS011;62421;51.412;5.432;2022-07-29T01:07:22;11.23;;;3.95;;
74064;SDS011;62421;51.412;5.432;2022-07-29T01:09:49;13.73;;;3.80;;
74064;SDS011;62421;51.412;5.432;2022-07-29T01:12:23;11.47;;;3.37;;
74064;SDS011;62421;51.412;5.432;2022-07-29T01:14:50;11.38;;;4.10;;
74064;SDS011;62421;51.412;5.432;2022-07-29T01:19:53;12.55;;;3.95;;
74064;SDS011;62421;51.412;5.432;2022-07-29T01:25:03;13.32;;;4.43;;
74064;SDS011;62421;51.412;5.432;2022-07-29T01:30:21;10.40;;;5.22;;
74064;SDS011;62421;51.412;5.432;2022-07-29T01:32:50;11.40;;;6.53;;
74064;SDS011;62421;51.412;5.432;2022-07-29T01:35:23;12.48;;;6.38;;
74064;SDS011;62421;51.412;5.432;2022-07-29T01:38:01;14.83;;;5.40;;
74064;SDS011;62421;51.412;5.432;2022-07-29T01:43:11;13.60;;;5.50;;
74064;SDS011;62421;51.412;5.432;2022-07-29T01:45:53;12.57;;;4.78;;
74064;SDS011;62421;51.412;5.432;2022-07-29T01:48:31;14.43;;;4.72;;
74064;SDS011;62421;51.412;5.432;2022-07-29T01:51:04;13.43;;;5.20;;
74064;SDS011;62421;51.412;5.432;2022-07-29T01:53:36;14.00;;;5.45;;
74064;SDS011;62421;51.412;5.432;2022-07-29T01:56:08;14.55;;;5.03;;
74064;SDS011;62421;51.412;5.432;2022-07-29T01:58:34;9.13;;;4.65;;
74064;SDS011;62421;51.412;5.432;2022-07-29T02:01:01;11.60;;;5.00;;
74064;SDS011;62421;51.412;5.432;2022-07-29T02:03:29;12.60;;;5.13;;
74064;SDS011;62421;51.412;5.432;2022-07-29T02:05:56;9.55;;;5.40;;
74064;SDS011;62421;51.412;5.432;2022-07-29T02:08:23;12.02;;;5.22;;
74064;SDS011;62421;51.412;5.432;2022-07-29T02:10:50;11.13;;;4.97;;
74064;SDS011;62421;51.412;5.432;2022-07-29T02:13:17;11.35;;;5.38;;
74064;SDS011;62421;51.412;5.432;2022-07-29T02:15:46;13.47;;;5.60;;
74064;SDS011;62421;51.412;5.432;2022-07-29T02:18:18;13.93;;;5.18;;
74064;SDS011;62421;51.412;5.432;2022-07-29T02:20:46;8.20;;;4.85;;
74064;SDS011;62421;51.412;5.432;2022-07-29T02:23:14;10.55;;;4.95;;
74064;SDS011;62421;51.412;5.432;2022-07-29T02:25:44;15.15;;;5.22;;
74064;SDS011;62421;51.412;5.432;2022-07-29T02:28:12;9.33;;;5.10;;
74064;SDS011;62421;51.412;5.432;2022-07-29T02:30:40;10.80;;;5.50;;
74064;SDS011;62421;51.412;5.432;2022-07-29T02:33:08;11.60;;;5.22;;
74064;SDS011;62421;51.412;5.432;2022-07-29T02:35:34;11.70;;;6.03;;
74064;SDS011;62421;51.412;5.432;2022-07-29T02:38:01;11.45;;;5.55;;
74064;SDS011;62421;51.412;5.432;2022-07-29T02:40:46;16.20;;;5.60;;
74064;SDS011;62421;51.412;5.432;2022-07-29T02:43:11;12.35;;;5.75;;
74064;SDS011;62421;51.412;5.432;2022-07-29T02:45:37;10.97;;;5.23;;
74064;SDS011;62421;51.412;5.432;2022-07-29T02:48:05;13.48;;;5.30;;
74064;SDS011;62421;51.412;5.432;2022-07-29T02:50:36;12.77;;;5.25;;
74064;SDS011;62421;51.412;5.432;2022-07-29T02:53:11;9.23;;;5.50;;
74064;SDS011;62421;51.412;5.432;2022-07-29T02:55:43;11.23;;;5.30;;
74064;SDS011;62421;51.412;5.432;2022-07-29T02:58:13;9.73;;;5.40;;
74064;SDS011;62421;51.412;5.432;2022-07-29T03:00:46;11.43;;;5.30;;
74064;SDS011;62421;51.412;5.432;2022-07-29T03:03:14;10.70;;;6.40;;
74064;SDS011;62421;51.412;5.432;2022-07-29T03:05:42;13.03;;;6.33;;
74064;SDS011;62421;51.412;5.432;2022-07-29T03:08:09;10.82;;;6.70;;
74064;SDS011;62421;51.412;5.432;2022-07-29T03:10:36;14.43;;;6.13;;
74064;SDS011;62421;51.412;5.432;2022-07-29T03:13:03;12.55;;;6.30;;
74064;SDS011;62421;51.412;5.432;2022-07-29T03:15:30;13.73;;;6.40;;
74064;SDS011;62421;51.412;5.432;2022-07-29T03:17:56;13.45;;;6.10;;
74064;SDS011;62421;51.412;5.432;2022-07-29T03:20:23;13.25;;;6.05;;
74064;SDS011;62421;51.412;5.432;2022-07-29T03:22:49;18.10;;;7.03;;
74064;SDS011;62421;51.412;5.432;2022-07-29T03:25:16;11.77;;;6.38;;
74064;SDS011;62421;51.412;5.432;2022-07-29T03:27:42;12.18;;;5.40;;
74064;SDS011;62421;51.412;5.432;2022-07-29T03:30:09;13.18;;;6.03;;
74064;SDS011;62421;51.412;5.432;2022-07-29T03:32:36;14.65;;;6.10;;
74064;SDS011;62421;51.412;5.432;2022-07-29T03:35:01;14.35;;;5.78;;
74064;SDS011;62421;51.412;5.432;2022-07-29T03:37:28;13.80;;;6.37;;
74064;SDS011;62421;51.412;5.432;2022-07-29T03:39:55;13.55;;;6.20;;
74064;SDS011;62421;51.412;5.432;2022-07-29T03:42:26;10.68;;;5.05;;
74064;SDS011;62421;51.412;5.432;2022-07-29T03:44:55;13.20;;;5.68;;
74064;SDS011;62421;51.412;5.432;2022-07-29T03:47:22;10.93;;;5.28;;
74064;SDS011;62421;51.412;5.432;2022-07-29T03:49:51;11.87;;;5.97;;
74064;SDS011;62421;51.412;5.432;2022-07-29T03:52:18;13.15;;;4.50;;
74064;SDS011;62421;51.412;5.432;2022-07-29T03:54:45;11.80;;;5.55;;
74064;SDS011;62421;51.412;5.432;2022-07-29T03:57:11;15.43;;;6.47;;
74064;SDS011;62421;51.412;5.432;2022-07-29T03:59:37;9.77;;;5.40;;
74064;SDS011;62421;51.412;5.432;2022-07-29T04:02:05;13.23;;;5.47;;
74064;SDS011;62421;51.412;5.432;2022-07-29T04:04:34;11.45;;;6.30;;
74064;SDS011;62421;51.412;5.432;2022-07-29T04:07:00;12.40;;;6.68;;
74064;SDS011;62421;51.412;5.432;2022-07-29T04:09:25;16.50;;;7.23;;
74064;SDS011;62421;51.412;5.432;2022-07-29T04:11:51;18.50;;;7.23;;
74064;SDS011;62421;51.412;5.432;2022-07-29T04:14:17;16.60;;;8.52;;
74064;SDS011;62421;51.412;5.432;2022-07-29T04:16:43;13.53;;;7.87;;
74064;SDS011;62421;51.412;5.432;2022-07-29T04:19:08;15.47;;;7.83;;
74064;SDS011;62421;51.412;5.432;2022-07-29T04:21:40;11.63;;;5.80;;
74064;SDS011;62421;51.412;5.432;2022-07-29T04:24:06;12.77;;;6.72;;
74064;SDS011;62421;51.412;5.432;2022-07-29T04:26:32;23.42;;;7.85;;
74064;SDS011;62421;51.412;5.432;2022-07-29T04:28:57;12.53;;;6.43;;
74064;SDS011;62421;51.412;5.432;2022-07-29T04:31:23;12.67;;;6.70;;
74064;SDS011;62421;51.412;5.432;2022-07-29T04:33:48;13.03;;;7.57;;
74064;SDS011;62421;51.412;5.432;2022-07-29T04:36:14;15.63;;;8.13;;
74064;SDS011;62421;51.412;5.432;2022-07-29T04:38:39;14.40;;;7.33;;
74064;SDS011;62421;51.412;5.432;2022-07-29T04:41:04;14.85;;;7.78;;
74064;SDS011;62421;51.412;5.432;2022-07-29T04:43:32;14.10;;;7.23;;
74064;SDS011;62421;51.412;5.432;2022-07-29T04:45:58;10.60;;;6.63;;
74064;SDS011;62421;51.412;5.432;2022-07-29T04:48:23;13.40;;;6.33;;
74064;SDS011;62421;51.412;5.432;2022-07-29T04:50:48;9.85;;;6.05;;
74064;SDS011;62421;51.412;5.432;2022-07-29T04:53:14;12.00;;;5.88;;
74064;SDS011;62421;51.412;5.432;2022-07-29T04:55:39;11.80;;;6.50;;
74064;SDS011;62421;51.412;5.432;2022-07-29T04:58:04;12.83;;;7.00;;
74064;SDS011;62421;51.412;5.432;2022-07-29T05:00:30;16.83;;;6.93;;
74064;SDS011;62421;51.412;5.432;2022-07-29T05:02:55;11.93;;;6.00;;
74064;SDS011;62421;51.412;5.432;2022-07-29T05:05:20;13.70;;;7.37;;
74064;SDS011;62421;51.412;5.432;2022-07-29T05:07:46;10.63;;;6.67;;
74064;SDS011;62421;51.412;5.432;2022-07-29T05:10:11;17.17;;;6.10;;
74064;SDS011;62421;51.412;5.432;2022-07-29T05:12:36;11.97;;;5.70;;
74064;SDS011;62421;51.412;5.432;2022-07-29T05:15:02;11.07;;;6.47;;
74064;SDS011;62421;51.412;5.432;2022-07-29T05:17:27;14.45;;;7.05;;
74064;SDS011;62421;51.412;5.432;2022-07-29T05:19:53;15.13;;;7.13;;
74064;SDS011;62421;51.412;5.432;2022-07-29T05:22:18;17.23;;;6.70;;
74064;SDS011;62421;51.412;5.432;2022-07-29T05:24:44;15.45;;;6.90;;
74064;SDS011;62421;51.412;5.432;2022-07-29T05:27:09;18.80;;;7.90;;
74064;SDS011;62421;51.412;5.432;2022-07-29T05:29:35;14.83;;;8.33;;
74064;SDS011;62421;51.412;5.432;2022-07-29T05:32:00;13.07;;;8.17;;
74064;SDS011;62421;51.412;5.432;2022-07-29T05:34:26;13.55;;;6.72;;
74064;SDS011;62421;51.412;5.432;2022-07-29T05:36:52;12.10;;;6.70;;
74064;SDS011;62421;51.412;5.432;2022-07-29T05:39:17;16.23;;;8.33;;
74064;SDS011;62421;51.412;5.432;2022-07-29T05:41:43;18.38;;;6.60;;
74064;SDS011;62421;51.412;5.432;2022-07-29T05:44:08;12.27;;;7.07;;
74064;SDS011;62421;51.412;5.432;2022-07-29T05:46:34;11.70;;;7.60;;
74064;SDS011;62421;51.412;5.432;2022-07-29T05:48:59;11.77;;;7.10;;
74064;SDS011;62421;51.412;5.432;2022-07-29T05:51:24;15.07;;;7.43;;
74064;SDS011;62421;51.412;5.432;2022-07-29T05:53:50;16.43;;;7.60;;
74064;SDS011;62421;51.412;5.432;2022-07-29T05:56:15;19.97;;;7.80;;
74064;SDS011;62421;51.412;5.432;2022-07-29T05:58:40;14.00;;;7.87;;
74064;SDS011;62421;51.412;5.432;2022-07-29T06:01:06;15.87;;;9.10;;
74064;SDS011;62421;51.412;5.432;2022-07-29T06:03:31;12.70;;;7.13;;
74064;SDS011;62421;51.412;5.432;2022-07-29T06:05:56;16.33;;;7.10;;
74064;SDS011;62421;51.412;5.432;2022-07-29T06:08:22;18.07;;;8.20;;
74064;SDS011;62421;51.412;5.432;2022-07-29T06:10:47;17.63;;;7.97;;
74064;SDS011;62421;51.412;5.432;2022-07-29T06:13:12;15.35;;;7.32;;
74064;SDS011;62421;51.412;5.432;2022-07-29T06:15:40;15.47;;;7.40;;
74064;SDS011;62421;51.412;5.432;2022-07-29T06:18:06;14.60;;;6.85;;
74064;SDS011;62421;51.412;5.432;2022-07-29T06:20:34;11.65;;;7.63;;
74064;SDS011;62421;51.412;5.432;2022-07-29T06:22:59;17.07;;;7.57;;
74064;SDS011;62421;51.412;5.432;2022-07-29T06:25:25;14.45;;;8.10;;
74064;SDS011;62421;51.412;5.432;2022-07-29T06:27:51;15.15;;;7.43;;
74064;SDS011;62421;51.412;5.432;2022-07-29T06:30:17;19.08;;;7.55;;
74064;SDS011;62421;51.412;5.432;2022-07-29T06:32:42;18.13;;;8.20;;
74064;SDS011;62421;51.412;5.432;2022-07-29T06:35:07;13.87;;;7.77;;
74064;SDS011;62421;51.412;5.432;2022-07-29T06:37:33;15.80;;;7.18;;
74064;SDS011;62421;51.412;5.432;2022-07-29T06:39:59;13.73;;;7.93;;
74064;SDS011;62421;51.412;5.432;2022-07-29T06:42:44;13.00;;;7.90;;
74064;SDS011;62421;51.412;5.432;2022-07-29T06:45:09;14.43;;;8.93;;
74064;SDS011;62421;51.412;5.432;2022-07-29T06:47:36;21.97;;;8.67;;
74064;SDS011;62421;51.412;5.432;2022-07-29T06:50:01;16.67;;;9.15;;
74064;SDS011;62421;51.412;5.432;2022-07-29T06:52:27;12.75;;;8.30;;
74064;SDS011;62421;51.412;5.432;2022-07-29T06:54:52;14.00;;;9.37;;
74064;SDS011;62421;51.412;5.432;2022-07-29T06:57:19;15.32;;;10.02;;
74064;SDS011;62421;51.412;5.432;2022-07-29T06:59:44;14.63;;;9.47;;
74064;SDS011;62421;51.412;5.432;2022-07-29T07:02:09;17.47;;;9.17;;
74064;SDS011;62421;51.412;5.432;2022-07-29T07:04:35;18.90;;;9.73;;
74064;SDS011;62421;51.412;5.432;2022-07-29T07:07:00;20.97;;;9.30;;
74064;SDS011;62421;51.412;5.432;2022-07-29T07:09:25;18.67;;;10.67;;
74064;SDS011;62421;51.412;5.432;2022-07-29T07:11:51;18.93;;;9.57;;
74064;SDS011;62421;51.412;5.432;2022-07-29T07:14:16;16.63;;;9.87;;
74064;SDS011;62421;51.412;5.432;2022-07-29T07:16:41;15.57;;;9.70;;
74064;SDS011;62421;51.412;5.432;2022-07-29T07:19:07;20.37;;;10.30;;
74064;SDS011;62421;51.412;5.432;2022-07-29T07:21:32;20.77;;;10.98;;
74064;SDS011;62421;51.412;5.432;2022-07-29T07:23:58;23.30;;;9.00;;
74064;SDS011;62421;51.412;5.432;2022-07-29T07:26:24;14.38;;;8.38;;
74064;SDS011;62421;51.412;5.432;2022-07-29T07:28:50;17.17;;;9.77;;
74064;SDS011;62421;51.412;5.432;2022-07-29T07:31:15;15.63;;;9.63;;
74064;SDS011;62421;51.412;5.432;2022-07-29T07:33:40;17.10;;;8.70;;
74064;SDS011;62421;51.412;5.432;2022-07-29T07:36:06;19.30;;;8.23;;
74064;SDS011;62421;51.412;5.432;2022-07-29T07:38:32;13.00;;;7.77;;
74064;SDS011;62421;51.412;5.432;2022-07-29T07:40:58;15.30;;;8.00;;
74064;SDS011;62421;51.412;5.432;2022-07-29T07:43:23;17.00;;;8.77;;
74064;SDS011;62421;51.412;5.432;2022-07-29T07:45:48;18.90;;;8.20;;
74064;SDS011;62421;51.412;5.432;2022-07-29T07:48:14;14.70;;;8.57;;
74064;SDS011;62421;51.412;5.432;2022-07-29T07:50:39;13.77;;;8.40;;
74064;SDS011;62421;51.412;5.432;2022-07-29T07:53:04;11.80;;;8.67;;
74064;SDS011;62421;51.412;5.432;2022-07-29T07:55:30;13.93;;;7.50;;
74064;SDS011;62421;51.412;5.432;2022-07-29T07:57:55;14.73;;;8.23;;
74064;SDS011;62421;51.412;5.432;2022-07-29T08:00:21;16.27;;;8.90;;
74064;SDS011;62421;51.412;5.432;2022-07-29T08:02:47;13.75;;;8.27;;
74064;SDS011;62421;51.412;5.432;2022-07-29T08:05:12;19.97;;;9.20;;
74064;SDS011;62421;51.412;5.432;2022-07-29T08:07:42;12.40;;;8.85;;
74064;SDS011;62421;51.412;5.432;2022-07-29T08:10:09;14.35;;;9.38;;
74064;SDS011;62421;51.412;5.432;2022-07-29T08:12:34;15.27;;;9.47;;
74064;SDS011;62421;51.412;5.432;2022-07-29T08:14:59;19.67;;;9.73;;
74064;SDS011;62421;51.412;5.432;2022-07-29T08:17:25;14.97;;;10.00;;
74064;SDS011;62421;51.412;5.432;2022-07-29T08:19:51;17.17;;;9.50;;
74064;SDS011;62421;51.412;5.432;2022-07-29T08:22:17;14.93;;;9.27;;
74064;SDS011;62421;51.412;5.432;2022-07-29T08:24:42;16.43;;;9.30;;
74064;SDS011;62421;51.412;5.432;2022-07-29T08:27:08;16.67;;;8.77;;
74064;SDS011;62421;51.412;5.432;2022-07-29T08:29:34;14.90;;;8.85;;
74064;SDS011;62421;51.412;5.432;2022-07-29T08:31:59;17.10;;;8.93;;
74064;SDS011;62421;51.412;5.432;2022-07-29T08:34:24;23.20;;;9.73;;
74064;SDS011;62421;51.412;5.432;2022-07-29T08:36:50;15.93;;;7.95;;
74064;SDS011;62421;51.412;5.432;2022-07-29T08:39:16;16.45;;;7.68;;
74064;SDS011;62421;51.412;5.432;2022-07-29T08:41:41;14.70;;;7.97;;
74064;SDS011;62421;51.412;5.432;2022-07-29T08:44:07;15.97;;;7.17;;
74064;SDS011;62421;51.412;5.432;2022-07-29T08:46:36;12.05;;;6.55;;
74064;SDS011;62421;51.412;5.432;2022-07-29T08:49:03;12.95;;;7.72;;
74064;SDS011;62421;51.412;5.432;2022-07-29T08:51:29;15.50;;;8.57;;
74064;SDS011;62421;51.412;5.432;2022-07-29T08:53:55;17.77;;;8.98;;
74064;SDS011;62421;51.412;5.432;2022-07-29T08:56:21;19.90;;;7.73;;
74064;SDS011;62421;51.412;5.432;2022-07-29T08:58:47;14.65;;;6.85;;
74064;SDS011;62421;51.412;5.432;2022-07-29T09:01:16;15.07;;;6.93;;
74064;SDS011;62421;51.412;5.432;2022-07-29T09:03:46;16.67;;;8.60;;
74064;SDS011;62421;51.412;5.432;2022-07-29T09:06:15;12.38;;;8.10;;
74064;SDS011;62421;51.412;5.432;2022-07-29T09:08:42;13.63;;;8.27;;
74064;SDS011;62421;51.412;5.432;2022-07-29T09:11:09;16.95;;;7.90;;
74064;SDS011;62421;51.412;5.432;2022-07-29T09:13:36;12.10;;;7.67;;
74064;SDS011;62421;51.412;5.432;2022-07-29T09:16:02;16.05;;;7.95;;
74064;SDS011;62421;51.412;5.432;2022-07-29T09:21:06;14.02;;;7.07;;
74064;SDS011;62421;51.412;5.432;2022-07-29T09:24:26;13.10;;;6.72;;
74064;SDS011;62421;51.412;5.432;2022-07-29T09:26:44;12.07;;;6.70;;
74064;SDS011;62421;51.412;5.432;2022-07-29T09:29:14;13.35;;;7.38;;
74064;SDS011;62421;51.412;5.432;2022-07-29T09:31:41;12.35;;;6.18;;
74064;SDS011;62421;51.412;5.432;2022-07-29T09:34:08;12.13;;;5.45;;
74064;SDS011;62421;51.412;5.432;2022-07-29T09:36:42;12.23;;;4.72;;
74064;SDS011;62421;51.412;5.432;2022-07-29T09:39:08;13.13;;;4.40;;
74064;SDS011;62421;51.412;5.432;2022-07-29T09:41:43;9.90;;;4.40;;
74064;SDS011;62421;51.412;5.432;2022-07-29T09:44:20;9.60;;;4.80;;
74064;SDS011;62421;51.412;5.432;2022-07-29T09:46:54;14.77;;;5.37;;
74064;SDS011;62421;51.412;5.432;2022-07-29T09:49:34;11.32;;;4.90;;
74064;SDS011;62421;51.412;5.432;2022-07-29T09:52:14;11.95;;;4.97;;
74064;SDS011;62421;51.412;5.432;2022-07-29T09:54:39;14.00;;;5.20;;
74064;SDS011;62421;51.412;5.432;2022-07-29T09:57:09;13.03;;;5.37;;
74064;SDS011;62421;51.412;5.432;2022-07-29T10:02:34;11.32;;;4.97;;
74064;SDS011;62421;51.412;5.432;2022-07-29T10:05:01;10.30;;;5.30;;
74064;SDS011;62421;51.412;5.432;2022-07-29T10:07:42;12.23;;;5.00;;
74064;SDS011;62421;51.412;5.432;2022-07-29T10:10:18;14.60;;;5.85;;
74064;SDS011;62421;51.412;5.432;2022-07-29T10:12:48;13.90;;;5.57;;
74064;SDS011;62421;51.412;5.432;2022-07-29T10:15:15;12.93;;;5.55;;
74064;SDS011;62421;51.412;5.432;2022-07-29T10:17:41;13.93;;;5.45;;
74064;SDS011;62421;51.412;5.432;2022-07-29T10:20:07;9.53;;;4.03;;
74064;SDS011;62421;51.412;5.432;2022-07-29T10:22:33;9.43;;;4.57;;
74064;SDS011;62421;51.412;5.432;2022-07-29T10:24:58;10.27;;;5.30;;
74064;SDS011;62421;51.412;5.432;2022-07-29T10:27:24;12.80;;;4.70;;
74064;SDS011;62421;51.412;5.432;2022-07-29T10:29:50;12.43;;;4.20;;
74064;SDS011;62421;51.412;5.432;2022-07-29T10:35:15;7.68;;;3.60;;
74064;SDS011;62421;51.412;5.432;2022-07-29T10:40:45;9.18;;;3.20;;
74064;SDS011;62421;51.412;5.432;2022-07-29T10:43:42;9.10;;;3.30;;
74064;SDS011;62421;51.412;5.432;2022-07-29T10:46:09;7.20;;;3.13;;
74064;SDS011;62421;51.412;5.432;2022-07-29T10:49:03;7.70;;;3.00;;
74064;SDS011;62421;51.412;5.432;2022-07-29T10:51:50;15.65;;;4.22;;
74064;SDS011;62421;51.412;5.432;2022-07-29T10:59:39;6.75;;;3.10;;
74064;SDS011;62421;51.412;5.432;2022-07-29T11:05:04;7.97;;;3.38;;
74064;SDS011;62421;51.412;5.432;2022-07-29T11:07:39;8.68;;;3.40;;
74064;SDS011;62421;51.412;5.432;2022-07-29T11:10:24;7.27;;;3.20;;
74064;SDS011;62421;51.412;5.432;2022-07-29T11:12:50;7.28;;;3.80;;
74064;SDS011;62421;51.412;5.432;2022-07-29T11:15:18;12.70;;;3.63;;
74064;SDS011;62421;51.412;5.432;2022-07-29T11:20:33;8.00;;;3.25;;
74064;SDS011;62421;51.412;5.432;2022-07-29T11:29:02;11.57;;;3.67;;
74064;SDS011;62421;51.412;5.432;2022-07-29T11:31:39;9.43;;;3.20;;
74064;SDS011;62421;51.412;5.432;2022-07-29T11:34:21;8.80;;;3.10;;
74064;SDS011;62421;51.412;5.432;2022-07-29T11:39:31;10.63;;;3.67;;
74064;SDS011;62421;51.412;5.432;2022-07-29T11:45:04;10.97;;;3.00;;
74064;SDS011;62421;51.412;5.432;2022-07-29T11:47:31;7.95;;;3.60;;
74064;SDS011;62421;51.412;5.432;2022-07-29T11:49:58;9.88;;;3.20;;
74064;SDS011;62421;51.412;5.432;2022-07-29T11:52:34;7.30;;;2.80;;
74064;SDS011;62421;51.412;5.432;2022-07-29T11:55:03;8.02;;;2.58;;
74064;SDS011;62421;51.412;5.432;2022-07-29T11:57:31;7.53;;;2.93;;
74064;SDS011;62421;51.412;5.432;2022-07-29T11:59:59;7.97;;;2.72;;
74064;SDS011;62421;51.412;5.432;2022-07-29T12:02:24;5.90;;;2.20;;
74064;SDS011;62421;51.412;5.432;2022-07-29T12:05:04;9.40;;;2.28;;
74064;SDS011;62421;51.412;5.432;2022-07-29T12:07:30;8.67;;;2.30;;
74064;SDS011;62421;51.412;5.432;2022-07-29T12:09:58;9.35;;;2.65;;
74064;SDS011;62421;51.412;5.432;2022-07-29T12:12:24;6.35;;;2.50;;
74064;SDS011;62421;51.412;5.432;2022-07-29T12:14:49;9.30;;;3.03;;
74064;SDS011;62421;51.412;5.432;2022-07-29T12:17:31;9.40;;;2.93;;
74064;SDS011;62421;51.412;5.432;2022-07-29T12:19:59;8.75;;;2.28;;
74064;SDS011;62421;51.412;5.432;2022-07-29T12:22:26;6.45;;;2.20;;
74064;SDS011;62421;51.412;5.432;2022-07-29T12:25:04;7.35;;;2.38;;
74064;SDS011;62421;51.412;5.432;2022-07-29T12:27:31;5.30;;;2.17;;
74064;SDS011;62421;51.412;5.432;2022-07-29T12:29:58;5.67;;;1.87;;
74064;SDS011;62421;51.412;5.432;2022-07-29T12:32:32;6.70;;;2.30;;
74064;SDS011;62421;51.412;5.432;2022-07-29T12:34:58;6.43;;;2.30;;
74064;SDS011;62421;51.412;5.432;2022-07-29T12:37:25;5.53;;;1.73;;
74064;SDS011;62421;51.412;5.432;2022-07-29T12:39:50;6.63;;;2.00;;
74064;SDS011;62421;51.412;5.432;2022-07-29T12:42:16;7.30;;;2.43;;
74064;SDS011;62421;51.412;5.432;2022-07-29T12:44:46;8.25;;;2.40;;
74064;SDS011;62421;51.412;5.432;2022-07-29T12:47:13;10.15;;;2.33;;
74064;SDS011;62421;51.412;5.432;2022-07-29T12:49:39;7.05;;;2.00;;
74064;SDS011;62421;51.412;5.432;2022-07-29T12:54:53;6.85;;;2.17;;
74064;SDS011;62421;51.412;5.432;2022-07-29T12:57:19;5.03;;;2.30;;
74064;SDS011;62421;51.412;5.432;2022-07-29T12:59:58;9.43;;;1.90;;
74064;SDS011;62421;51.412;5.432;2022-07-29T13:02:26;6.97;;;2.03;;
74064;SDS011;62421;51.412;5.432;2022-07-29T13:04:58;7.30;;;2.43;;
74064;SDS011;62421;51.412;5.432;2022-07-29T13:07:27;8.27;;;2.22;;
74064;SDS011;62421;51.412;5.432;2022-07-29T13:09:55;6.70;;;2.20;;
74064;SDS011;62421;51.412;5.432;2022-07-29T13:12:36;11.70;;;3.70;;
74064;SDS011;62421;51.412;5.432;2022-07-29T13:15:11;7.63;;;2.53;;
74064;SDS011;62421;51.412;5.432;2022-07-29T13:17:42;7.32;;;2.17;;
74064;SDS011;62421;51.412;5.432;2022-07-29T13:20:09;13.80;;;2.13;;
74064;SDS011;62421;51.412;5.432;2022-07-29T13:22:39;8.15;;;2.22;;
74064;SDS011;62421;51.412;5.432;2022-07-29T13:25:07;10.87;;;2.30;;
74064;SDS011;62421;51.412;5.432;2022-07-29T13:27:34;7.78;;;2.15;;
74064;SDS011;62421;51.412;5.432;2022-07-29T13:30:05;6.53;;;2.35;;
74064;SDS011;62421;51.412;5.432;2022-07-29T13:32:32;13.75;;;2.53;;
74064;SDS011;62421;51.412;5.432;2022-07-29T13:35:00;7.25;;;2.20;;
74064;SDS011;62421;51.412;5.432;2022-07-29T13:37:27;8.07;;;2.27;;
74064;SDS011;62421;51.412;5.432;2022-07-29T13:39:54;9.15;;;2.20;;
74064;SDS011;62421;51.412;5.432;2022-07-29T13:42:20;7.60;;;2.58;;
74064;SDS011;62421;51.412;5.432;2022-07-29T13:44:46;6.90;;;2.03;;
74064;SDS011;62421;51.412;5.432;2022-07-29T13:47:13;6.97;;;2.53;;
74064;SDS011;62421;51.412;5.432;2022-07-29T13:49:39;8.77;;;2.50;;
74064;SDS011;62421;51.412;5.432;2022-07-29T13:52:04;9.60;;;2.60;;
74064;SDS011;62421;51.412;5.432;2022-07-29T13:54:32;9.10;;;2.65;;
74064;SDS011;62421;51.412;5.432;2022-07-29T13:56:57;10.90;;;2.87;;
74064;SDS011;62421;51.412;5.432;2022-07-29T13:59:22;8.60;;;2.20;;
74064;SDS011;62421;51.412;5.432;2022-07-29T14:01:48;6.77;;;2.67;;
74064;SDS011;62421;51.412;5.432;2022-07-29T14:04:13;6.13;;;2.63;;
74064;SDS011;62421;51.412;5.432;2022-07-29T14:06:38;7.32;;;2.35;;
74064;SDS011;62421;51.412;5.432;2022-07-29T14:09:04;11.03;;;2.67;;
74064;SDS011;62421;51.412;5.432;2022-07-29T14:11:31;7.15;;;2.50;;
74064;SDS011;62421;51.412;5.432;2022-07-29T14:13:57;10.80;;;2.67;;
74064;SDS011;62421;51.412;5.432;2022-07-29T14:16:22;6.57;;;2.22;;
74064;SDS011;62421;51.412;5.432;2022-07-29T14:18:47;9.45;;;2.40;;
74064;SDS011;62421;51.412;5.432;2022-07-29T14:21:13;9.13;;;2.00;;
74064;SDS011;62421;51.412;5.432;2022-07-29T14:23:38;17.87;;;2.23;;
74064;SDS011;62421;51.412;5.432;2022-07-29T14:26:03;11.00;;;2.40;;
74064;SDS011;62421;51.412;5.432;2022-07-29T14:28:29;5.57;;;2.30;;
74064;SDS011;62421;51.412;5.432;2022-07-29T14:30:54;12.27;;;2.00;;
74064;SDS011;62421;51.412;5.432;2022-07-29T14:33:20;12.57;;;2.58;;
74064;SDS011;62421;51.412;5.432;2022-07-29T14:35:45;9.67;;;2.20;;
74064;SDS011;62421;51.412;5.432;2022-07-29T14:38:10;9.53;;;2.37;;
74064;SDS011;62421;51.412;5.432;2022-07-29T14:40:36;8.50;;;2.43;;
74064;SDS011;62421;51.412;5.432;2022-07-29T14:43:02;10.25;;;2.30;;
74064;SDS011;62421;51.412;5.432;2022-07-29T14:45:27;6.23;;;1.70;;
74064;SDS011;62421;51.412;5.432;2022-07-29T14:47:53;9.48;;;2.38;;
74064;SDS011;62421;51.412;5.432;2022-07-29T14:50:19;8.87;;;2.47;;
74064;SDS011;62421;51.412;5.432;2022-07-29T14:52:44;9.43;;;1.83;;
74064;SDS011;62421;51.412;5.432;2022-07-29T14:55:09;11.37;;;2.30;;
74064;SDS011;62421;51.412;5.432;2022-07-29T14:57:35;7.70;;;1.88;;
74064;SDS011;62421;51.412;5.432;2022-07-29T15:00:00;8.57;;;1.80;;
74064;SDS011;62421;51.412;5.432;2022-07-29T15:02:27;8.60;;;2.27;;
74064;SDS011;62421;51.412;5.432;2022-07-29T15:04:53;6.18;;;2.00;;
74064;SDS011;62421;51.412;5.432;2022-07-29T15:07:18;7.35;;;2.05;;
74064;SDS011;62421;51.412;5.432;2022-07-29T15:09:43;11.80;;;2.30;;
74064;SDS011;62421;51.412;5.432;2022-07-29T15:12:10;6.67;;;1.97;;
74064;SDS011;62421;51.412;5.432;2022-07-29T15:14:36;7.45;;;2.03;;
74064;SDS011;62421;51.412;5.432;2022-07-29T15:17:01;13.70;;;2.30;;
74064;SDS011;62421;51.412;5.432;2022-07-29T15:19:27;7.70;;;2.15;;
74064;SDS011;62421;51.412;5.432;2022-07-29T15:21:52;6.80;;;2.05;;
74064;SDS011;62421;51.412;5.432;2022-07-29T15:24:18;6.90;;;1.97;;
74064;SDS011;62421;51.412;5.432;2022-07-29T15:26:44;8.63;;;2.10;;
74064;SDS011;62421;51.412;5.432;2022-07-29T15:29:10;6.50;;;2.20;;